sensor_id;sensor_type;location;lat;lon;timestamp;P1;durP1;ratioP1;P2;durP2;ratioP2
64959;SDS011;51487;52.266;10.542;2023-12-07T00:01:05;24.00;;;19.35;;
64959;SDS011;51487;52.266;10.542;2023-12-07T00:03:31;24.20;;;19.25;;
64959;SDS011;51487;52.266;10.542;2023-12-07T00:05:56;22.45;;;19.10;;
64959;SDS011;51487;52.266;10.542;2023-12-07T00:08:22;22.40;;;18.73;;
64959;SDS011;51487;52.266;10.542;2023-12-07T00:10:47;20.98;;;17.77;;
64959;SDS011;51487;52.266;10.542;2023-12-07T00:13:13;21.00;;;18.52;;
64959;SDS011;51487;52.266;10.542;2023-12-07T00:15:38;23.90;;;17.58;;
64959;SDS011;51487;52.266;10.542;2023-12-07T00:18:04;20.95;;;18.30;;
64959;SDS011;51487;52.266;10.542;2023-12-07T00:20:30;22.00;;;18.13;;
64959;SDS011;51487;52.266;10.542;2023-12-07T00:22:56;21.70;;;18.40;;
64959;SDS011;51487;52.266;10.542;2023-12-07T00:25:21;23.67;;;18.80;;
64959;SDS011;51487;52.266;10.542;2023-12-07T00:27:48;24.52;;;18.88;;
64959;SDS011;51487;52.266;10.542;2023-12-07T00:30:14;23.02;;;18.88;;
64959;SDS011;51487;52.266;10.542;2023-12-07T00:32:40;21.85;;;18.40;;
64959;SDS011;51487;52.266;10.542;2023-12-07T00:35:09;23.52;;;17.83;;
64959;SDS011;51487;52.266;10.542;2023-12-07T00:37:35;22.95;;;17.90;;
64959;SDS011;51487;52.266;10.542;2023-12-07T00:40:01;22.77;;;18.88;;
64959;SDS011;51487;52.266;10.542;2023-12-07T00:42:28;22.60;;;18.95;;
64959;SDS011;51487;52.266;10.542;2023-12-07T00:44:55;23.58;;;18.80;;
64959;SDS011;51487;52.266;10.542;2023-12-07T00:47:21;23.17;;;17.90;;
64959;SDS011;51487;52.266;10.542;2023-12-07T00:49:47;25.13;;;18.55;;
64959;SDS011;51487;52.266;10.542;2023-12-07T00:52:13;23.38;;;18.17;;
64959;SDS011;51487;52.266;10.542;2023-12-07T00:54:38;24.00;;;17.33;;
64959;SDS011;51487;52.266;10.542;2023-12-07T00:57:04;22.48;;;18.23;;
64959;SDS011;51487;52.266;10.542;2023-12-07T00:59:31;20.42;;;17.00;;
64959;SDS011;51487;52.266;10.542;2023-12-07T01:02:02;21.48;;;18.23;;
64959;SDS011;51487;52.266;10.542;2023-12-07T01:04:36;20.95;;;17.95;;
64959;SDS011;51487;52.266;10.542;2023-12-07T01:07:02;22.92;;;18.48;;
64959;SDS011;51487;52.266;10.542;2023-12-07T01:09:27;23.05;;;18.02;;
64959;SDS011;51487;52.266;10.542;2023-12-07T01:11:53;20.75;;;17.83;;
64959;SDS011;51487;52.266;10.542;2023-12-07T01:14:19;22.35;;;18.30;;
64959;SDS011;51487;52.266;10.542;2023-12-07T01:16:44;25.90;;;17.35;;
64959;SDS011;51487;52.266;10.542;2023-12-07T01:19:10;21.25;;;17.30;;
64959;SDS011;51487;52.266;10.542;2023-12-07T01:21:39;20.92;;;17.27;;
64959;SDS011;51487;52.266;10.542;2023-12-07T01:24:06;21.90;;;17.67;;
64959;SDS011;51487;52.266;10.542;2023-12-07T01:26:32;22.77;;;18.27;;
64959;SDS011;51487;52.266;10.542;2023-12-07T01:28:58;21.55;;;17.85;;
64959;SDS011;51487;52.266;10.542;2023-12-07T01:31:23;22.40;;;17.95;;
64959;SDS011;51487;52.266;10.542;2023-12-07T01:33:49;21.27;;;17.50;;
64959;SDS011;51487;52.266;10.542;2023-12-07T01:36:14;22.88;;;17.48;;
64959;SDS011;51487;52.266;10.542;2023-12-07T01:38:40;22.67;;;18.30;;
64959;SDS011;51487;52.266;10.542;2023-12-07T01:41:05;22.65;;;18.08;;
64959;SDS011;51487;52.266;10.542;2023-12-07T01:43:31;22.75;;;17.42;;
64959;SDS011;51487;52.266;10.542;2023-12-07T01:45:56;24.65;;;18.42;;
64959;SDS011;51487;52.266;10.542;2023-12-07T01:48:23;21.85;;;17.75;;
64959;SDS011;51487;52.266;10.542;2023-12-07T01:50:51;22.60;;;18.45;;
64959;SDS011;51487;52.266;10.542;2023-12-07T01:53:19;23.35;;;17.92;;
64959;SDS011;51487;52.266;10.542;2023-12-07T01:55:48;21.83;;;17.30;;
64959;SDS011;51487;52.266;10.542;2023-12-07T01:58:17;20.95;;;17.50;;
64959;SDS011;51487;52.266;10.542;2023-12-07T02:00:44;21.90;;;17.60;;
64959;SDS011;51487;52.266;10.542;2023-12-07T02:03:12;21.48;;;17.65;;
64959;SDS011;51487;52.266;10.542;2023-12-07T02:05:41;21.00;;;17.50;;
64959;SDS011;51487;52.266;10.542;2023-12-07T02:08:11;22.05;;;16.67;;
64959;SDS011;51487;52.266;10.542;2023-12-07T02:10:37;23.33;;;17.83;;
64959;SDS011;51487;52.266;10.542;2023-12-07T02:13:02;23.17;;;17.17;;
64959;SDS011;51487;52.266;10.542;2023-12-07T02:15:29;21.50;;;17.83;;
64959;SDS011;51487;52.266;10.542;2023-12-07T02:23:21;21.77;;;17.48;;
64959;SDS011;51487;52.266;10.542;2023-12-07T02:25:52;21.60;;;17.38;;
64959;SDS011;51487;52.266;10.542;2023-12-07T02:28:19;22.10;;;17.20;;
64959;SDS011;51487;52.266;10.542;2023-12-07T02:30:45;21.65;;;17.20;;
64959;SDS011;51487;52.266;10.542;2023-12-07T02:33:11;18.45;;;15.35;;
64959;SDS011;51487;52.266;10.542;2023-12-07T02:35:38;20.40;;;16.10;;
64959;SDS011;51487;52.266;10.542;2023-12-07T02:38:06;21.95;;;16.33;;
64959;SDS011;51487;52.266;10.542;2023-12-07T02:40:33;20.50;;;15.95;;
64959;SDS011;51487;52.266;10.542;2023-12-07T02:43:00;19.13;;;15.90;;
64959;SDS011;51487;52.266;10.542;2023-12-07T02:45:28;18.88;;;15.80;;
64959;SDS011;51487;52.266;10.542;2023-12-07T02:47:54;18.45;;;15.50;;
64959;SDS011;51487;52.266;10.542;2023-12-07T02:50:20;19.00;;;15.50;;
64959;SDS011;51487;52.266;10.542;2023-12-07T02:52:45;17.58;;;13.52;;
64959;SDS011;51487;52.266;10.542;2023-12-07T02:55:11;20.23;;;15.88;;
64959;SDS011;51487;52.266;10.542;2023-12-07T02:57:37;20.05;;;16.30;;
64959;SDS011;51487;52.266;10.542;2023-12-07T03:00:03;19.58;;;15.50;;
64959;SDS011;51487;52.266;10.542;2023-12-07T03:02:33;19.02;;;16.02;;
64959;SDS011;51487;52.266;10.542;2023-12-07T03:05:01;20.48;;;15.70;;
64959;SDS011;51487;52.266;10.542;2023-12-07T03:07:27;19.48;;;15.85;;
64959;SDS011;51487;52.266;10.542;2023-12-07T03:09:52;19.15;;;15.50;;
64959;SDS011;51487;52.266;10.542;2023-12-07T03:12:18;17.92;;;15.77;;
64959;SDS011;51487;52.266;10.542;2023-12-07T03:16:16;19.13;;;15.23;;
64959;SDS011;51487;52.266;10.542;2023-12-07T03:18:42;16.83;;;14.77;;
64959;SDS011;51487;52.266;10.542;2023-12-07T03:21:07;20.08;;;14.88;;
64959;SDS011;51487;52.266;10.542;2023-12-07T03:23:33;17.52;;;15.35;;
64959;SDS011;51487;52.266;10.542;2023-12-07T03:25:58;17.92;;;15.27;;
64959;SDS011;51487;52.266;10.542;2023-12-07T03:28:24;19.33;;;14.18;;
64959;SDS011;51487;52.266;10.542;2023-12-07T03:30:49;17.98;;;14.55;;
64959;SDS011;51487;52.266;10.542;2023-12-07T03:33:15;17.90;;;15.00;;
64959;SDS011;51487;52.266;10.542;2023-12-07T03:35:40;16.92;;;14.80;;
64959;SDS011;51487;52.266;10.542;2023-12-07T03:38:06;17.17;;;14.80;;
64959;SDS011;51487;52.266;10.542;2023-12-07T03:40:31;17.85;;;14.98;;
64959;SDS011;51487;52.266;10.542;2023-12-07T03:42:57;20.02;;;14.80;;
64959;SDS011;51487;52.266;10.542;2023-12-07T03:45:23;16.63;;;14.82;;
64959;SDS011;51487;52.266;10.542;2023-12-07T03:47:49;16.80;;;14.38;;
64959;SDS011;51487;52.266;10.542;2023-12-07T03:50:14;17.60;;;14.55;;
64959;SDS011;51487;52.266;10.542;2023-12-07T03:52:40;17.92;;;15.35;;
64959;SDS011;51487;52.266;10.542;2023-12-07T03:55:06;17.52;;;14.90;;
64959;SDS011;51487;52.266;10.542;2023-12-07T03:57:32;16.45;;;14.05;;
64959;SDS011;51487;52.266;10.542;2023-12-07T03:59:57;17.08;;;14.30;;
64959;SDS011;51487;52.266;10.542;2023-12-07T04:02:23;17.02;;;14.15;;
64959;SDS011;51487;52.266;10.542;2023-12-07T04:04:49;15.90;;;14.23;;
64959;SDS011;51487;52.266;10.542;2023-12-07T04:07:14;17.38;;;14.50;;
64959;SDS011;51487;52.266;10.542;2023-12-07T04:09:40;16.48;;;14.07;;
64959;SDS011;51487;52.266;10.542;2023-12-07T04:12:05;19.70;;;14.13;;
64959;SDS011;51487;52.266;10.542;2023-12-07T04:14:31;18.27;;;14.10;;
64959;SDS011;51487;52.266;10.542;2023-12-07T04:16:57;15.95;;;13.60;;
64959;SDS011;51487;52.266;10.542;2023-12-07T04:19:22;23.00;;;14.05;;
64959;SDS011;51487;52.266;10.542;2023-12-07T04:21:48;21.40;;;14.20;;
64959;SDS011;51487;52.266;10.542;2023-12-07T04:24:13;19.27;;;14.40;;
64959;SDS011;51487;52.266;10.542;2023-12-07T04:26:39;15.77;;;13.57;;
64959;SDS011;51487;52.266;10.542;2023-12-07T04:29:04;17.35;;;13.20;;
64959;SDS011;51487;52.266;10.542;2023-12-07T04:31:30;15.10;;;13.45;;
64959;SDS011;51487;52.266;10.542;2023-12-07T04:33:55;16.60;;;13.52;;
64959;SDS011;51487;52.266;10.542;2023-12-07T04:36:21;16.08;;;13.52;;
64959;SDS011;51487;52.266;10.542;2023-12-07T04:38:46;15.07;;;13.48;;
64959;SDS011;51487;52.266;10.542;2023-12-07T04:41:12;15.52;;;13.82;;
64959;SDS011;51487;52.266;10.542;2023-12-07T04:43:37;15.85;;;13.65;;
64959;SDS011;51487;52.266;10.542;2023-12-07T04:46:03;18.10;;;13.20;;
64959;SDS011;51487;52.266;10.542;2023-12-07T04:48:28;14.80;;;12.55;;
64959;SDS011;51487;52.266;10.542;2023-12-07T04:50:54;15.52;;;13.25;;
64959;SDS011;51487;52.266;10.542;2023-12-07T04:53:19;15.27;;;13.65;;
64959;SDS011;51487;52.266;10.542;2023-12-07T04:55:45;15.38;;;13.15;;
64959;SDS011;51487;52.266;10.542;2023-12-07T04:58:15;17.20;;;14.00;;
64959;SDS011;51487;52.266;10.542;2023-12-07T05:00:40;17.35;;;13.18;;
64959;SDS011;51487;52.266;10.542;2023-12-07T05:03:06;15.48;;;13.85;;
64959;SDS011;51487;52.266;10.542;2023-12-07T05:05:32;16.60;;;13.77;;
64959;SDS011;51487;52.266;10.542;2023-12-07T05:07:57;16.08;;;12.88;;
64959;SDS011;51487;52.266;10.542;2023-12-07T05:10:22;15.88;;;13.43;;
64959;SDS011;51487;52.266;10.542;2023-12-07T05:12:48;15.55;;;12.80;;
64959;SDS011;51487;52.266;10.542;2023-12-07T05:15:13;16.20;;;13.25;;
64959;SDS011;51487;52.266;10.542;2023-12-07T05:17:39;15.45;;;12.80;;
64959;SDS011;51487;52.266;10.542;2023-12-07T05:20:05;15.90;;;13.43;;
64959;SDS011;51487;52.266;10.542;2023-12-07T05:22:32;15.68;;;13.98;;
64959;SDS011;51487;52.266;10.542;2023-12-07T05:24:57;16.88;;;14.40;;
64959;SDS011;51487;52.266;10.542;2023-12-07T05:27:26;16.95;;;13.80;;
64959;SDS011;51487;52.266;10.542;2023-12-07T05:29:51;18.45;;;15.50;;
64959;SDS011;51487;52.266;10.542;2023-12-07T05:32:17;16.90;;;14.45;;
64959;SDS011;51487;52.266;10.542;2023-12-07T05:34:42;18.10;;;14.98;;
64959;SDS011;51487;52.266;10.542;2023-12-07T05:37:08;17.92;;;15.02;;
64959;SDS011;51487;52.266;10.542;2023-12-07T05:39:34;16.98;;;14.35;;
64959;SDS011;51487;52.266;10.542;2023-12-07T05:41:59;15.60;;;13.95;;
64959;SDS011;51487;52.266;10.542;2023-12-07T05:44:25;16.30;;;14.43;;
64959;SDS011;51487;52.266;10.542;2023-12-07T05:46:50;16.58;;;14.48;;
64959;SDS011;51487;52.266;10.542;2023-12-07T05:49:16;17.48;;;14.25;;
64959;SDS011;51487;52.266;10.542;2023-12-07T05:51:42;19.40;;;14.93;;
64959;SDS011;51487;52.266;10.542;2023-12-07T05:54:07;16.45;;;13.75;;
64959;SDS011;51487;52.266;10.542;2023-12-07T05:56:33;17.63;;;14.20;;
64959;SDS011;51487;52.266;10.542;2023-12-07T05:58:59;17.15;;;14.35;;
64959;SDS011;51487;52.266;10.542;2023-12-07T06:01:24;16.85;;;14.02;;
64959;SDS011;51487;52.266;10.542;2023-12-07T06:03:50;16.95;;;14.52;;
64959;SDS011;51487;52.266;10.542;2023-12-07T06:06:15;18.60;;;14.25;;
64959;SDS011;51487;52.266;10.542;2023-12-07T06:08:41;17.25;;;14.48;;
64959;SDS011;51487;52.266;10.542;2023-12-07T06:11:07;18.02;;;14.00;;
64959;SDS011;51487;52.266;10.542;2023-12-07T06:13:33;18.95;;;14.70;;
64959;SDS011;51487;52.266;10.542;2023-12-07T06:15:58;16.48;;;14.35;;
64959;SDS011;51487;52.266;10.542;2023-12-07T06:18:26;21.15;;;15.55;;
64959;SDS011;51487;52.266;10.542;2023-12-07T06:20:51;16.65;;;13.82;;
64959;SDS011;51487;52.266;10.542;2023-12-07T06:23:17;18.92;;;14.25;;
64959;SDS011;51487;52.266;10.542;2023-12-07T06:25:43;16.45;;;14.10;;
64959;SDS011;51487;52.266;10.542;2023-12-07T06:28:12;15.23;;;13.05;;
64959;SDS011;51487;52.266;10.542;2023-12-07T06:30:37;15.50;;;13.82;;
64959;SDS011;51487;52.266;10.542;2023-12-07T06:33:03;16.13;;;14.23;;
64959;SDS011;51487;52.266;10.542;2023-12-07T06:35:29;16.88;;;13.77;;
64959;SDS011;51487;52.266;10.542;2023-12-07T06:37:55;16.75;;;13.82;;
64959;SDS011;51487;52.266;10.542;2023-12-07T06:40:21;17.02;;;14.02;;
64959;SDS011;51487;52.266;10.542;2023-12-07T06:42:47;16.85;;;13.95;;
64959;SDS011;51487;52.266;10.542;2023-12-07T06:45:13;15.95;;;13.75;;
64959;SDS011;51487;52.266;10.542;2023-12-07T06:47:42;16.77;;;14.55;;
64959;SDS011;51487;52.266;10.542;2023-12-07T06:50:08;17.52;;;14.80;;
64959;SDS011;51487;52.266;10.542;2023-12-07T06:52:35;16.02;;;13.85;;
64959;SDS011;51487;52.266;10.542;2023-12-07T06:55:04;18.27;;;14.45;;
64959;SDS011;51487;52.266;10.542;2023-12-07T06:57:31;16.15;;;14.35;;
64959;SDS011;51487;52.266;10.542;2023-12-07T06:59:58;17.70;;;13.55;;
64959;SDS011;51487;52.266;10.542;2023-12-07T07:02:23;15.35;;;13.13;;
64959;SDS011;51487;52.266;10.542;2023-12-07T07:04:49;15.57;;;12.75;;
64959;SDS011;51487;52.266;10.542;2023-12-07T07:07:15;17.02;;;13.63;;
64959;SDS011;51487;52.266;10.542;2023-12-07T07:09:41;16.73;;;13.57;;
64959;SDS011;51487;52.266;10.542;2023-12-07T07:12:06;16.20;;;13.88;;
64959;SDS011;51487;52.266;10.542;2023-12-07T07:14:32;15.38;;;13.77;;
64959;SDS011;51487;52.266;10.542;2023-12-07T07:16:59;14.68;;;12.30;;
64959;SDS011;51487;52.266;10.542;2023-12-07T07:19:25;15.07;;;12.35;;
64959;SDS011;51487;52.266;10.542;2023-12-07T07:21:50;15.90;;;13.75;;
64959;SDS011;51487;52.266;10.542;2023-12-07T07:24:15;16.20;;;13.45;;
64959;SDS011;51487;52.266;10.542;2023-12-07T07:26:41;15.02;;;13.43;;
64959;SDS011;51487;52.266;10.542;2023-12-07T07:29:06;15.52;;;13.52;;
64959;SDS011;51487;52.266;10.542;2023-12-07T07:31:33;14.77;;;12.68;;
64959;SDS011;51487;52.266;10.542;2023-12-07T07:33:59;16.63;;;14.10;;
64959;SDS011;51487;52.266;10.542;2023-12-07T07:36:25;16.83;;;14.02;;
64959;SDS011;51487;52.266;10.542;2023-12-07T07:38:50;15.15;;;12.63;;
64959;SDS011;51487;52.266;10.542;2023-12-07T07:41:16;18.17;;;13.55;;
64959;SDS011;51487;52.266;10.542;2023-12-07T07:43:41;15.82;;;13.32;;
64959;SDS011;51487;52.266;10.542;2023-12-07T07:46:08;16.33;;;12.75;;
64959;SDS011;51487;52.266;10.542;2023-12-07T07:48:33;15.63;;;13.00;;
64959;SDS011;51487;52.266;10.542;2023-12-07T07:50:59;14.32;;;12.55;;
64959;SDS011;51487;52.266;10.542;2023-12-07T07:53:24;14.80;;;12.75;;
64959;SDS011;51487;52.266;10.542;2023-12-07T07:55:50;18.08;;;13.05;;
64959;SDS011;51487;52.266;10.542;2023-12-07T07:58:15;14.50;;;12.40;;
64959;SDS011;51487;52.266;10.542;2023-12-07T08:00:41;15.60;;;12.38;;
64959;SDS011;51487;52.266;10.542;2023-12-07T08:03:06;15.73;;;12.93;;
64959;SDS011;51487;52.266;10.542;2023-12-07T08:05:33;18.48;;;13.13;;
64959;SDS011;51487;52.266;10.542;2023-12-07T08:07:58;14.95;;;12.40;;
64959;SDS011;51487;52.266;10.542;2023-12-07T08:10:24;16.17;;;12.77;;
64959;SDS011;51487;52.266;10.542;2023-12-07T08:12:49;15.55;;;13.30;;
64959;SDS011;51487;52.266;10.542;2023-12-07T08:15:15;16.80;;;12.60;;
64959;SDS011;51487;52.266;10.542;2023-12-07T08:17:41;16.30;;;12.80;;
64959;SDS011;51487;52.266;10.542;2023-12-07T08:20:07;15.43;;;12.55;;
64959;SDS011;51487;52.266;10.542;2023-12-07T08:22:35;17.77;;;12.43;;
64959;SDS011;51487;52.266;10.542;2023-12-07T08:25:02;15.88;;;11.35;;
64959;SDS011;51487;52.266;10.542;2023-12-07T08:27:30;15.27;;;12.23;;
64959;SDS011;51487;52.266;10.542;2023-12-07T08:30:01;15.57;;;12.30;;
64959;SDS011;51487;52.266;10.542;2023-12-07T08:32:28;16.52;;;12.65;;
64959;SDS011;51487;52.266;10.542;2023-12-07T08:34:54;14.77;;;11.88;;
64959;SDS011;51487;52.266;10.542;2023-12-07T08:37:19;16.55;;;12.18;;
64959;SDS011;51487;52.266;10.542;2023-12-07T08:39:45;15.52;;;11.80;;
64959;SDS011;51487;52.266;10.542;2023-12-07T08:42:11;17.90;;;11.55;;
64959;SDS011;51487;52.266;10.542;2023-12-07T08:44:37;14.60;;;11.40;;
64959;SDS011;51487;52.266;10.542;2023-12-07T08:47:03;15.23;;;11.90;;
64959;SDS011;51487;52.266;10.542;2023-12-07T08:49:30;16.30;;;11.40;;
64959;SDS011;51487;52.266;10.542;2023-12-07T08:51:56;13.90;;;11.63;;
64959;SDS011;51487;52.266;10.542;2023-12-07T08:54:22;15.48;;;11.60;;
64959;SDS011;51487;52.266;10.542;2023-12-07T08:56:48;14.18;;;11.65;;
64959;SDS011;51487;52.266;10.542;2023-12-07T08:59:13;13.40;;;11.82;;
64959;SDS011;51487;52.266;10.542;2023-12-07T09:01:39;15.65;;;10.90;;
64959;SDS011;51487;52.266;10.542;2023-12-07T09:04:05;14.07;;;10.85;;
64959;SDS011;51487;52.266;10.542;2023-12-07T09:06:30;12.45;;;10.57;;
64959;SDS011;51487;52.266;10.542;2023-12-07T09:08:56;17.75;;;11.15;;
64959;SDS011;51487;52.266;10.542;2023-12-07T09:11:22;15.43;;;12.18;;
64959;SDS011;51487;52.266;10.542;2023-12-07T09:13:47;14.73;;;11.18;;
64959;SDS011;51487;52.266;10.542;2023-12-07T09:16:13;14.38;;;12.30;;
64959;SDS011;51487;52.266;10.542;2023-12-07T09:18:40;14.65;;;10.88;;
64959;SDS011;51487;52.266;10.542;2023-12-07T09:21:07;13.95;;;11.27;;
64959;SDS011;51487;52.266;10.542;2023-12-07T09:23:33;14.73;;;10.82;;
64959;SDS011;51487;52.266;10.542;2023-12-07T09:26:00;12.63;;;11.00;;
64959;SDS011;51487;52.266;10.542;2023-12-07T09:28:26;14.15;;;10.73;;
64959;SDS011;51487;52.266;10.542;2023-12-07T09:30:51;13.65;;;10.93;;
64959;SDS011;51487;52.266;10.542;2023-12-07T09:33:17;12.65;;;10.25;;
64959;SDS011;51487;52.266;10.542;2023-12-07T09:35:42;11.82;;;10.60;;
64959;SDS011;51487;52.266;10.542;2023-12-07T09:38:08;14.00;;;10.98;;
64959;SDS011;51487;52.266;10.542;2023-12-07T09:40:34;12.60;;;10.38;;
64959;SDS011;51487;52.266;10.542;2023-12-07T09:43:00;12.48;;;10.95;;
64959;SDS011;51487;52.266;10.542;2023-12-07T09:45:26;13.45;;;10.65;;
64959;SDS011;51487;52.266;10.542;2023-12-07T09:47:53;12.60;;;10.98;;
64959;SDS011;51487;52.266;10.542;2023-12-07T09:50:23;11.90;;;10.60;;
64959;SDS011;51487;52.266;10.542;2023-12-07T09:52:53;12.52;;;10.15;;
64959;SDS011;51487;52.266;10.542;2023-12-07T09:55:21;11.75;;;10.52;;
64959;SDS011;51487;52.266;10.542;2023-12-07T09:57:48;14.60;;;11.23;;
64959;SDS011;51487;52.266;10.542;2023-12-07T10:00:15;18.05;;;10.57;;
64959;SDS011;51487;52.266;10.542;2023-12-07T10:02:43;14.95;;;11.00;;
64959;SDS011;51487;52.266;10.542;2023-12-07T10:05:11;14.65;;;11.15;;
64959;SDS011;51487;52.266;10.542;2023-12-07T10:07:41;14.98;;;10.50;;
64959;SDS011;51487;52.266;10.542;2023-12-07T10:10:15;14.68;;;11.75;;
64959;SDS011;51487;52.266;10.542;2023-12-07T10:15:23;18.02;;;11.30;;
64959;SDS011;51487;52.266;10.542;2023-12-07T10:20:22;15.52;;;11.80;;
64959;SDS011;51487;52.266;10.542;2023-12-07T10:23:06;15.18;;;11.60;;
64959;SDS011;51487;52.266;10.542;2023-12-07T10:25:37;15.77;;;11.32;;
64959;SDS011;51487;52.266;10.542;2023-12-07T10:28:09;14.13;;;11.57;;
64959;SDS011;51487;52.266;10.542;2023-12-07T10:30:37;16.17;;;11.57;;
64959;SDS011;51487;52.266;10.542;2023-12-07T10:33:06;15.25;;;12.43;;
64959;SDS011;51487;52.266;10.542;2023-12-07T10:35:32;15.48;;;11.63;;
64959;SDS011;51487;52.266;10.542;2023-12-07T10:38:02;13.63;;;11.45;;
64959;SDS011;51487;52.266;10.542;2023-12-07T10:40:28;13.50;;;11.40;;
64959;SDS011;51487;52.266;10.542;2023-12-07T10:42:55;14.55;;;11.98;;
64959;SDS011;51487;52.266;10.542;2023-12-07T10:45:27;14.55;;;11.32;;
64959;SDS011;51487;52.266;10.542;2023-12-07T10:47:56;14.85;;;11.77;;
64959;SDS011;51487;52.266;10.542;2023-12-07T10:50:30;14.75;;;10.68;;
64959;SDS011;51487;52.266;10.542;2023-12-07T10:53:03;17.15;;;12.43;;
64959;SDS011;51487;52.266;10.542;2023-12-07T10:55:38;13.75;;;11.27;;
64959;SDS011;51487;52.266;10.542;2023-12-07T10:58:13;14.95;;;11.63;;
64959;SDS011;51487;52.266;10.542;2023-12-07T11:00:42;15.25;;;11.43;;
64959;SDS011;51487;52.266;10.542;2023-12-07T11:03:15;15.05;;;12.23;;
64959;SDS011;51487;52.266;10.542;2023-12-07T11:05:48;14.55;;;12.27;;
64959;SDS011;51487;52.266;10.542;2023-12-07T11:08:27;13.68;;;12.18;;
64959;SDS011;51487;52.266;10.542;2023-12-07T11:11:04;13.68;;;11.00;;
64959;SDS011;51487;52.266;10.542;2023-12-07T11:13:37;14.02;;;11.52;;
64959;SDS011;51487;52.266;10.542;2023-12-07T11:16:04;15.75;;;10.75;;
64959;SDS011;51487;52.266;10.542;2023-12-07T11:18:30;15.35;;;11.57;;
64959;SDS011;51487;52.266;10.542;2023-12-07T11:20:56;13.18;;;11.70;;
64959;SDS011;51487;52.266;10.542;2023-12-07T11:23:23;14.02;;;10.85;;
64959;SDS011;51487;52.266;10.542;2023-12-07T11:25:49;14.15;;;11.35;;
64959;SDS011;51487;52.266;10.542;2023-12-07T11:28:17;12.82;;;11.05;;
64959;SDS011;51487;52.266;10.542;2023-12-07T11:30:46;17.70;;;11.05;;
64959;SDS011;51487;52.266;10.542;2023-12-07T11:33:12;12.70;;;10.77;;
64959;SDS011;51487;52.266;10.542;2023-12-07T11:38:28;12.63;;;10.95;;
64959;SDS011;51487;52.266;10.542;2023-12-07T11:40:54;11.40;;;10.20;;
64959;SDS011;51487;52.266;10.542;2023-12-07T11:46:06;13.68;;;10.30;;
64959;SDS011;51487;52.266;10.542;2023-12-07T11:48:33;11.70;;;10.13;;
64959;SDS011;51487;52.266;10.542;2023-12-07T11:51:07;13.20;;;10.10;;
64959;SDS011;51487;52.266;10.542;2023-12-07T11:53:35;12.18;;;10.02;;
64959;SDS011;51487;52.266;10.542;2023-12-07T11:56:06;12.82;;;9.80;;
64959;SDS011;51487;52.266;10.542;2023-12-07T11:58:35;12.32;;;10.82;;
64959;SDS011;51487;52.266;10.542;2023-12-07T12:01:02;14.50;;;10.05;;
64959;SDS011;51487;52.266;10.542;2023-12-07T12:03:29;12.10;;;10.07;;
64959;SDS011;51487;52.266;10.542;2023-12-07T12:05:57;13.10;;;10.80;;
64959;SDS011;51487;52.266;10.542;2023-12-07T12:08:23;13.65;;;10.27;;
64959;SDS011;51487;52.266;10.542;2023-12-07T12:10:52;13.23;;;10.80;;
64959;SDS011;51487;52.266;10.542;2023-12-07T12:13:25;12.60;;;10.07;;
64959;SDS011;51487;52.266;10.542;2023-12-07T12:15:58;14.80;;;10.75;;
64959;SDS011;51487;52.266;10.542;2023-12-07T12:18:25;12.88;;;10.07;;
64959;SDS011;51487;52.266;10.542;2023-12-07T12:20:52;12.63;;;9.90;;
64959;SDS011;51487;52.266;10.542;2023-12-07T12:23:18;12.35;;;10.07;;
64959;SDS011;51487;52.266;10.542;2023-12-07T12:25:45;14.00;;;9.73;;
64959;SDS011;51487;52.266;10.542;2023-12-07T12:28:10;12.88;;;10.05;;
64959;SDS011;51487;52.266;10.542;2023-12-07T12:30:40;13.60;;;10.45;;
64959;SDS011;51487;52.266;10.542;2023-12-07T12:33:07;12.25;;;10.48;;
64959;SDS011;51487;52.266;10.542;2023-12-07T12:35:32;13.63;;;9.82;;
64959;SDS011;51487;52.266;10.542;2023-12-07T12:37:58;13.45;;;10.52;;
64959;SDS011;51487;52.266;10.542;2023-12-07T12:40:26;15.20;;;10.60;;
64959;SDS011;51487;52.266;10.542;2023-12-07T12:45:22;16.15;;;10.73;;
64959;SDS011;51487;52.266;10.542;2023-12-07T12:47:48;16.98;;;10.80;;
64959;SDS011;51487;52.266;10.542;2023-12-07T12:53:06;12.98;;;10.07;;
64959;SDS011;51487;52.266;10.542;2023-12-07T12:55:35;12.70;;;9.90;;
64959;SDS011;51487;52.266;10.542;2023-12-07T12:58:03;14.10;;;10.77;;
64959;SDS011;51487;52.266;10.542;2023-12-07T13:00:32;15.60;;;10.88;;
64959;SDS011;51487;52.266;10.542;2023-12-07T13:03:03;14.00;;;10.52;;
64959;SDS011;51487;52.266;10.542;2023-12-07T13:05:30;16.20;;;11.90;;
64959;SDS011;51487;52.266;10.542;2023-12-07T13:07:57;13.65;;;10.48;;
64959;SDS011;51487;52.266;10.542;2023-12-07T13:10:24;14.52;;;10.93;;
64959;SDS011;51487;52.266;10.542;2023-12-07T13:12:51;14.05;;;10.98;;
64959;SDS011;51487;52.266;10.542;2023-12-07T13:15:16;12.65;;;10.00;;
64959;SDS011;51487;52.266;10.542;2023-12-07T13:17:42;12.23;;;9.90;;
64959;SDS011;51487;52.266;10.542;2023-12-07T13:20:09;13.57;;;10.38;;
64959;SDS011;51487;52.266;10.542;2023-12-07T13:22:42;12.35;;;10.65;;
64959;SDS011;51487;52.266;10.542;2023-12-07T13:25:11;14.85;;;10.32;;
64959;SDS011;51487;52.266;10.542;2023-12-07T13:27:39;14.07;;;10.77;;
64959;SDS011;51487;52.266;10.542;2023-12-07T13:30:05;17.88;;;11.13;;
64959;SDS011;51487;52.266;10.542;2023-12-07T13:32:35;13.82;;;10.15;;
64959;SDS011;51487;52.266;10.542;2023-12-07T13:35:08;14.77;;;10.77;;
64959;SDS011;51487;52.266;10.542;2023-12-07T13:37:34;16.15;;;10.90;;
64959;SDS011;51487;52.266;10.542;2023-12-07T13:39:59;13.82;;;11.30;;
64959;SDS011;51487;52.266;10.542;2023-12-07T13:42:28;13.40;;;10.48;;
64959;SDS011;51487;52.266;10.542;2023-12-07T13:44:55;13.15;;;10.90;;
64959;SDS011;51487;52.266;10.542;2023-12-07T13:47:26;15.90;;;10.40;;
64959;SDS011;51487;52.266;10.542;2023-12-07T13:50:01;13.07;;;10.40;;
64959;SDS011;51487;52.266;10.542;2023-12-07T13:52:28;15.35;;;9.77;;
64959;SDS011;51487;52.266;10.542;2023-12-07T13:54:54;13.65;;;10.40;;
64959;SDS011;51487;52.266;10.542;2023-12-07T13:57:21;12.98;;;10.60;;
64959;SDS011;51487;52.266;10.542;2023-12-07T13:59:49;12.43;;;10.25;;
64959;SDS011;51487;52.266;10.542;2023-12-07T14:02:16;11.80;;;9.40;;
64959;SDS011;51487;52.266;10.542;2023-12-07T14:04:42;14.55;;;10.20;;
64959;SDS011;51487;52.266;10.542;2023-12-07T14:09:41;14.90;;;11.50;;
64959;SDS011;51487;52.266;10.542;2023-12-07T14:12:12;14.63;;;10.50;;
64959;SDS011;51487;52.266;10.542;2023-12-07T14:14:40;12.90;;;10.20;;
64959;SDS011;51487;52.266;10.542;2023-12-07T14:17:06;13.52;;;9.45;;
64959;SDS011;51487;52.266;10.542;2023-12-07T14:19:32;11.65;;;9.65;;
64959;SDS011;51487;52.266;10.542;2023-12-07T14:21:58;12.98;;;9.57;;
64959;SDS011;51487;52.266;10.542;2023-12-07T14:24:24;14.90;;;9.80;;
64959;SDS011;51487;52.266;10.542;2023-12-07T14:26:50;16.70;;;10.35;;
64959;SDS011;51487;52.266;10.542;2023-12-07T14:29:16;15.80;;;9.57;;
64959;SDS011;51487;52.266;10.542;2023-12-07T14:31:46;15.88;;;9.98;;